sensor_id;sensor_type;location;lat;lon;timestamp;temperature;humidity
85671;DHT22;76102;50.890;3.932;2024-03-23T00:53:42;6.70;94.10
85671;DHT22;76102;50.890;3.932;2024-03-23T00:56:07;6.70;94.10
85671;DHT22;76102;50.890;3.932;2024-03-23T00:58:35;6.60;94.20
85671;DHT22;76102;50.890;3.932;2024-03-23T01:01:01;6.60;94.30
85671;DHT22;76102;50.890;3.932;2024-03-23T01:03:31;6.50;94.40
85671;DHT22;76102;50.890;3.932;2024-03-23T01:06:02;6.40;94.60
85671;DHT22;76102;50.890;3.932;2024-03-23T01:08:29;6.50;95.00
85671;DHT22;76102;50.890;3.932;2024-03-23T01:10:56;6.60;95.20
85671;DHT22;76102;50.890;3.932;2024-03-23T01:13:22;6.70;95.30
85671;DHT22;76102;50.890;3.932;2024-03-23T01:15:53;6.70;95.50
85671;DHT22;76102;50.890;3.932;2024-03-23T01:18:19;6.90;95.40
85671;DHT22;76102;50.890;3.932;2024-03-23T01:20:45;6.90;95.40
85671;DHT22;76102;50.890;3.932;2024-03-23T01:23:14;7.00;95.20
85671;DHT22;76102;50.890;3.932;2024-03-23T01:25:40;7.10;95.00
85671;DHT22;76102;50.890;3.932;2024-03-23T01:28:08;7.20;94.90
85671;DHT22;76102;50.890;3.932;2024-03-23T01:30:35;7.20;94.70
85671;DHT22;76102;50.890;3.932;2024-03-23T01:33:04;7.20;94.50
85671;DHT22;76102;50.890;3.932;2024-03-23T01:35:31;7.30;94.40
85671;DHT22;76102;50.890;3.932;2024-03-23T01:37:57;7.20;94.30
85671;DHT22;76102;50.890;3.932;2024-03-23T01:40:23;7.20;94.20
85671;DHT22;76102;50.890;3.932;2024-03-23T01:42:58;7.30;94.30
85671;DHT22;76102;50.890;3.932;2024-03-23T01:45:24;7.20;94.20
85671;DHT22;76102;50.890;3.932;2024-03-23T01:47:53;7.20;94.20
85671;DHT22;76102;50.890;3.932;2024-03-23T01:50:19;7.20;94.30
85671;DHT22;76102;50.890;3.932;2024-03-23T01:52:49;7.30;94.20
85671;DHT22;76102;50.890;3.932;2024-03-23T01:55:15;7.30;94.00
85671;DHT22;76102;50.890;3.932;2024-03-23T01:57:41;7.30;93.70
85671;DHT22;76102;50.890;3.932;2024-03-23T02:00:07;7.30;93.60
85671;DHT22;76102;50.890;3.932;2024-03-23T02:02:36;7.30;93.30
85671;DHT22;76102;50.890;3.932;2024-03-23T02:05:04;7.30;93.30
85671;DHT22;76102;50.890;3.932;2024-03-23T02:07:32;7.20;93.30
85671;DHT22;76102;50.890;3.932;2024-03-23T02:09:58;7.20;93.30
85671;DHT22;76102;50.890;3.932;2024-03-23T02:12:23;7.10;93.40
85671;DHT22;76102;50.890;3.932;2024-03-23T02:14:49;7.10;93.40
85671;DHT22;76102;50.890;3.932;2024-03-23T02:17:17;7.20;93.10
85671;DHT22;76102;50.890;3.932;2024-03-23T02:19:42;7.10;92.80
85671;DHT22;76102;50.890;3.932;2024-03-23T02:22:08;7.10;93.00
85671;DHT22;76102;50.890;3.932;2024-03-23T02:24:38;7.10;92.80
85671;DHT22;76102;50.890;3.932;2024-03-23T02:27:06;7.10;92.80
85671;DHT22;76102;50.890;3.932;2024-03-23T02:29:34;7.30;92.60
85671;DHT22;76102;50.890;3.932;2024-03-23T02:32:02;7.20;92.10
85671;DHT22;76102;50.890;3.932;2024-03-23T02:34:28;7.10;92.10
85671;DHT22;76102;50.890;3.932;2024-03-23T02:36:53;7.00;92.40
85671;DHT22;76102;50.890;3.932;2024-03-23T02:39:19;7.00;92.20
85671;DHT22;76102;50.890;3.932;2024-03-23T02:41:49;7.00;91.80
85671;DHT22;76102;50.890;3.932;2024-03-23T02:44:17;7.00;91.70
85671;DHT22;76102;50.890;3.932;2024-03-23T02:46:43;7.00;91.80
85671;DHT22;76102;50.890;3.932;2024-03-23T02:49:11;7.00;91.60
85671;DHT22;76102;50.890;3.932;2024-03-23T02:51:39;7.00;91.60
85671;DHT22;76102;50.890;3.932;2024-03-23T02:54:06;7.00;91.70
85671;DHT22;76102;50.890;3.932;2024-03-23T02:56:32;7.00;91.20
85671;DHT22;76102;50.890;3.932;2024-03-23T02:58:58;7.00;91.10
85671;DHT22;76102;50.890;3.932;2024-03-23T03:01:28;6.90;90.70
85671;DHT22;76102;50.890;3.932;2024-03-23T03:04:00;6.80;91.10
85671;DHT22;76102;50.890;3.932;2024-03-23T03:06:30;6.80;91.50
85671;DHT22;76102;50.890;3.932;2024-03-23T03:09:00;6.70;91.70
85671;DHT22;76102;50.890;3.932;2024-03-23T03:11:31;6.70;91.20
85671;DHT22;76102;50.890;3.932;2024-03-23T03:13:57;6.70;91.20
85671;DHT22;76102;50.890;3.932;2024-03-23T03:16:25;6.60;91.20
85671;DHT22;76102;50.890;3.932;2024-03-23T03:18:53;6.50;91.10
85671;DHT22;76102;50.890;3.932;2024-03-23T03:21:19;6.40;91.50
85671;DHT22;76102;50.890;3.932;2024-03-23T03:23:47;6.50;91.30
85671;DHT22;76102;50.890;3.932;2024-03-23T03:26:18;6.40;91.20
85671;DHT22;76102;50.890;3.932;2024-03-23T03:28:43;6.40;90.70
85671;DHT22;76102;50.890;3.932;2024-03-23T03:31:15;6.40;90.80
85671;DHT22;76102;50.890;3.932;2024-03-23T03:33:43;6.30;90.80
85671;DHT22;76102;50.890;3.932;2024-03-23T03:36:11;6.30;90.80
85671;DHT22;76102;50.890;3.932;2024-03-23T03:38:37;6.10;91.40
85671;DHT22;76102;50.890;3.932;2024-03-23T03:41:03;6.10;91.50
85671;DHT22;76102;50.890;3.932;2024-03-23T03:43:29;6.20;91.20
85671;DHT22;76102;50.890;3.932;2024-03-23T03:46:00;6.20;91.10
85671;DHT22;76102;50.890;3.932;2024-03-23T03:48:26;6.30;90.90
85671;DHT22;76102;50.890;3.932;2024-03-23T03:50:57;6.20;91.00
85671;DHT22;76102;50.890;3.932;2024-03-23T03:53:22;6.20;91.10
85671;DHT22;76102;50.890;3.932;2024-03-23T03:55:48;6.40;90.60
85671;DHT22;76102;50.890;3.932;2024-03-23T03:58:18;6.50;90.70
85671;DHT22;76102;50.890;3.932;2024-03-23T04:00:49;6.40;90.80
85671;DHT22;76102;50.890;3.932;2024-03-23T04:03:14;6.30;91.40
85671;DHT22;76102;50.890;3.932;2024-03-23T04:05:42;6.50;90.60
85671;DHT22;76102;50.890;3.932;2024-03-23T04:08:08;6.60;90.80
85671;DHT22;76102;50.890;3.932;2024-03-23T04:10:36;6.70;90.40
85671;DHT22;76102;50.890;3.932;2024-03-23T04:13:04;6.70;90.30
85671;DHT22;76102;50.890;3.932;2024-03-23T04:15:30;6.80;89.60
85671;DHT22;76102;50.890;3.932;2024-03-23T04:17:55;6.70;89.40
85671;DHT22;76102;50.890;3.932;2024-03-23T04:20:21;6.50;90.20
85671;DHT22;76102;50.890;3.932;2024-03-23T04:22:49;6.50;90.10
85671;DHT22;76102;50.890;3.932;2024-03-23T04:25:14;6.60;90.00
85671;DHT22;76102;50.890;3.932;2024-03-23T04:27:40;6.50;89.50
85671;DHT22;76102;50.890;3.932;2024-03-23T04:30:10;6.40;90.20
85671;DHT22;76102;50.890;3.932;2024-03-23T04:32:39;6.40;90.30
85671;DHT22;76102;50.890;3.932;2024-03-23T04:35:05;6.40;90.40
85671;DHT22;76102;50.890;3.932;2024-03-23T04:37:35;6.40;90.30
85671;DHT22;76102;50.890;3.932;2024-03-23T04:40:01;6.50;90.20
85671;DHT22;76102;50.890;3.932;2024-03-23T04:42:29;6.50;90.10
85671;DHT22;76102;50.890;3.932;2024-03-23T04:44:55;6.50;89.70
85671;DHT22;76102;50.890;3.932;2024-03-23T04:47:21;6.70;89.00
85671;DHT22;76102;50.890;3.932;2024-03-23T04:49:46;6.60;89.20
85671;DHT22;76102;50.890;3.932;2024-03-23T04:52:15;6.50;88.50
85671;DHT22;76102;50.890;3.932;2024-03-23T04:54:43;6.50;89.00
85671;DHT22;76102;50.890;3.932;2024-03-23T04:57:11;6.50;89.10
85671;DHT22;76102;50.890;3.932;2024-03-23T04:59:39;6.50;89.60
85671;DHT22;76102;50.890;3.932;2024-03-23T05:02:05;6.40;89.80
85671;DHT22;76102;50.890;3.932;2024-03-23T05:04:31;6.40;89.30
85671;DHT22;76102;50.890;3.932;2024-03-23T05:06:58;6.30;89.20
85671;DHT22;76102;50.890;3.932;2024-03-23T05:09:24;6.20;89.60
85671;DHT22;76102;50.890;3.932;2024-03-23T05:11:55;6.20;90.10
85671;DHT22;76102;50.890;3.932;2024-03-23T05:14:20;6.20;90.00
85671;DHT22;76102;50.890;3.932;2024-03-23T05:16:46;6.20;89.80
85671;DHT22;76102;50.890;3.932;2024-03-23T05:19:14;6.20;90.00
85671;DHT22;76102;50.890;3.932;2024-03-23T05:21:46;6.20;89.90
85671;DHT22;76102;50.890;3.932;2024-03-23T05:24:12;6.10;90.00
85671;DHT22;76102;50.890;3.932;2024-03-23T05:26:40;6.10;90.10
85671;DHT22;76102;50.890;3.932;2024-03-23T05:29:08;6.20;89.80
85671;DHT22;76102;50.890;3.932;2024-03-23T05:31:38;6.20;89.50
85671;DHT22;76102;50.890;3.932;2024-03-23T05:34:06;6.10;89.50
85671;DHT22;76102;50.890;3.932;2024-03-23T05:36:32;6.10;89.80
85671;DHT22;76102;50.890;3.932;2024-03-23T05:38:58;6.20;89.80
85671;DHT22;76102;50.890;3.932;2024-03-23T05:41:26;6.10;89.80
85671;DHT22;76102;50.890;3.932;2024-03-23T05:43:51;6.10;90.00
85671;DHT22;76102;50.890;3.932;2024-03-23T05:46:17;6.00;90.00
85671;DHT22;76102;50.890;3.932;2024-03-23T05:48:43;6.00;90.60
85671;DHT22;76102;50.890;3.932;2024-03-23T05:51:11;6.00;90.10
85671;DHT22;76102;50.890;3.932;2024-03-23T05:53:39;6.00;90.20
85671;DHT22;76102;50.890;3.932;2024-03-23T05:56:07;6.00;90.10
85671;DHT22;76102;50.890;3.932;2024-03-23T05:58:32;5.90;90.20
85671;DHT22;76102;50.890;3.932;2024-03-23T06:01:01;5.90;90.40
85671;DHT22;76102;50.890;3.932;2024-03-23T06:03:27;5.90;90.40
85671;DHT22;76102;50.890;3.932;2024-03-23T06:05:53;6.00;90.50
85671;DHT22;76102;50.890;3.932;2024-03-23T06:08:19;6.00;90.30
85671;DHT22;76102;50.890;3.932;2024-03-23T06:10:46;6.00;89.90
85671;DHT22;76102;50.890;3.932;2024-03-23T06:13:14;6.10;90.30
85671;DHT22;76102;50.890;3.932;2024-03-23T06:15:40;6.20;89.80
85671;DHT22;76102;50.890;3.932;2024-03-23T06:18:06;6.20;89.60
85671;DHT22;76102;50.890;3.932;2024-03-23T06:20:34;6.20;88.50
85671;DHT22;76102;50.890;3.932;2024-03-23T06:23:01;6.10;89.10
85671;DHT22;76102;50.890;3.932;2024-03-23T06:25:28;6.10;88.30
85671;DHT22;76102;50.890;3.932;2024-03-23T06:27:54;6.30;88.20
85671;DHT22;76102;50.890;3.932;2024-03-23T06:30:20;6.30;88.20
85671;DHT22;76102;50.890;3.932;2024-03-23T06:32:45;6.30;88.00
85671;DHT22;76102;50.890;3.932;2024-03-23T06:35:11;6.20;88.80
85671;DHT22;76102;50.890;3.932;2024-03-23T06:37:39;6.20;88.50
85671;DHT22;76102;50.890;3.932;2024-03-23T06:40:08;6.10;88.80
85671;DHT22;76102;50.890;3.932;2024-03-23T06:42:37;6.10;90.00
85671;DHT22;76102;50.890;3.932;2024-03-23T06:45:06;6.20;89.10
85671;DHT22;76102;50.890;3.932;2024-03-23T06:47:32;6.00;89.10
85671;DHT22;76102;50.890;3.932;2024-03-23T06:49:59;5.80;89.00
85671;DHT22;76102;50.890;3.932;2024-03-23T06:52:27;5.80;89.90
85671;DHT22;76102;50.890;3.932;2024-03-23T06:54:53;5.80;89.10
85671;DHT22;76102;50.890;3.932;2024-03-23T06:57:19;5.80;89.40
85671;DHT22;76102;50.890;3.932;2024-03-23T06:59:47;5.70;89.30
85671;DHT22;76102;50.890;3.932;2024-03-23T07:02:15;5.70;89.70
85671;DHT22;76102;50.890;3.932;2024-03-23T07:04:44;6.30;88.60
85671;DHT22;76102;50.890;3.932;2024-03-23T07:07:12;7.00;85.40
85671;DHT22;76102;50.890;3.932;2024-03-23T07:09:38;7.70;82.70
85671;DHT22;76102;50.890;3.932;2024-03-23T07:12:03;8.00;80.80
85671;DHT22;76102;50.890;3.932;2024-03-23T07:14:31;8.30;78.70
85671;DHT22;76102;50.890;3.932;2024-03-23T07:16:59;8.40;80.80
85671;DHT22;76102;50.890;3.932;2024-03-23T07:19:25;8.50;78.30
85671;DHT22;76102;50.890;3.932;2024-03-23T07:21:51;7.90;79.80
85671;DHT22;76102;50.890;3.932;2024-03-23T07:24:16;7.40;82.80
85671;DHT22;76102;50.890;3.932;2024-03-23T07:26:44;8.00;82.40
85671;DHT22;76102;50.890;3.932;2024-03-23T07:29:10;8.60;80.10
85671;DHT22;76102;50.890;3.932;2024-03-23T07:31:36;9.20;77.40
85671;DHT22;76102;50.890;3.932;2024-03-23T07:34:04;9.70;75.50
85671;DHT22;76102;50.890;3.932;2024-03-23T07:36:31;9.50;75.50
85671;DHT22;76102;50.890;3.932;2024-03-23T07:38:59;8.20;78.20
85671;DHT22;76102;50.890;3.932;2024-03-23T07:41:29;7.60;81.40
85671;DHT22;76102;50.890;3.932;2024-03-23T07:43:56;7.90;82.00
85671;DHT22;76102;50.890;3.932;2024-03-23T07:46:21;7.70;80.70
85671;DHT22;76102;50.890;3.932;2024-03-23T07:48:47;8.30;80.90
85671;DHT22;76102;50.890;3.932;2024-03-23T07:51:22;8.60;77.80
85671;DHT22;76102;50.890;3.932;2024-03-23T07:53:50;8.90;75.80
85671;DHT22;76102;50.890;3.932;2024-03-23T07:56:17;9.40;76.80
85671;DHT22;76102;50.890;3.932;2024-03-23T07:58:51;9.80;75.10
85671;DHT22;76102;50.890;3.932;2024-03-23T08:01:17;9.50;74.70
85671;DHT22;76102;50.890;3.932;2024-03-23T08:03:46;8.80;75.50
85671;DHT22;76102;50.890;3.932;2024-03-23T08:06:15;8.40;78.80
85671;DHT22;76102;50.890;3.932;2024-03-23T08:08:46;8.90;77.70
85671;DHT22;76102;50.890;3.932;2024-03-23T08:11:12;9.10;76.70
85671;DHT22;76102;50.890;3.932;2024-03-23T08:13:41;9.10;75.60
85671;DHT22;76102;50.890;3.932;2024-03-23T08:16:08;9.10;73.70
85671;DHT22;76102;50.890;3.932;2024-03-23T08:18:37;9.60;73.20
85671;DHT22;76102;50.890;3.932;2024-03-23T08:21:06;9.00;76.00
85671;DHT22;76102;50.890;3.932;2024-03-23T08:23:33;9.40;74.20
85671;DHT22;76102;50.890;3.932;2024-03-23T08:26:00;9.80;71.80
85671;DHT22;76102;50.890;3.932;2024-03-23T08:28:26;9.50;74.50
85671;DHT22;76102;50.890;3.932;2024-03-23T08:30:53;9.60;73.80
85671;DHT22;76102;50.890;3.932;2024-03-23T08:33:19;10.10;74.00
85671;DHT22;76102;50.890;3.932;2024-03-23T08:35:58;10.10;70.80
85671;DHT22;76102;50.890;3.932;2024-03-23T08:38:25;9.00;73.20
85671;DHT22;76102;50.890;3.932;2024-03-23T08:41:04;8.80;75.30
85671;DHT22;76102;50.890;3.932;2024-03-23T08:43:33;8.60;77.30
85671;DHT22;76102;50.890;3.932;2024-03-23T08:46:14;8.20;78.10
85671;DHT22;76102;50.890;3.932;2024-03-23T08:48:46;8.10;78.70
85671;DHT22;76102;50.890;3.932;2024-03-23T08:51:15;8.70;75.10
85671;DHT22;76102;50.890;3.932;2024-03-23T08:53:41;9.50;72.80
85671;DHT22;76102;50.890;3.932;2024-03-23T08:56:08;9.80;71.70
85671;DHT22;76102;50.890;3.932;2024-03-23T08:58:35;9.00;71.50
85671;DHT22;76102;50.890;3.932;2024-03-23T09:01:11;9.10;72.60
85671;DHT22;76102;50.890;3.932;2024-03-23T09:03:38;9.40;72.10
85671;DHT22;76102;50.890;3.932;2024-03-23T09:06:12;9.60;71.20
85671;DHT22;76102;50.890;3.932;2024-03-23T09:08:38;9.40;71.20
85671;DHT22;76102;50.890;3.932;2024-03-23T09:11:08;9.40;71.80
85671;DHT22;76102;50.890;3.932;2024-03-23T09:13:37;9.10;72.70
85671;DHT22;76102;50.890;3.932;2024-03-23T09:16:04;9.90;71.30
85671;DHT22;76102;50.890;3.932;2024-03-23T09:18:35;9.10;70.60
85671;DHT22;76102;50.890;3.932;2024-03-23T09:21:03;8.60;72.90
85671;DHT22;76102;50.890;3.932;2024-03-23T09:23:29;8.80;72.80
85671;DHT22;76102;50.890;3.932;2024-03-23T09:25:55;9.90;69.80
85671;DHT22;76102;50.890;3.932;2024-03-23T09:28:23;11.00;67.90
85671;DHT22;76102;50.890;3.932;2024-03-23T09:30:49;10.40;65.50
85671;DHT22;76102;50.890;3.932;2024-03-23T09:33:14;10.00;67.80
85671;DHT22;76102;50.890;3.932;2024-03-23T09:35:41;10.30;65.60
85671;DHT22;76102;50.890;3.932;2024-03-23T09:38:07;10.50;68.10
85671;DHT22;76102;50.890;3.932;2024-03-23T09:40:34;9.70;66.50
85671;DHT22;76102;50.890;3.932;2024-03-23T09:43:00;9.10;70.20
85671;DHT22;76102;50.890;3.932;2024-03-23T09:45:29;8.80;70.40
85671;DHT22;76102;50.890;3.932;2024-03-23T09:47:55;8.30;71.30
85671;DHT22;76102;50.890;3.932;2024-03-23T09:50:21;8.70;71.10
85671;DHT22;76102;50.890;3.932;2024-03-23T09:52:47;8.70;72.20
85671;DHT22;76102;50.890;3.932;2024-03-23T09:55:13;8.60;70.30
85671;DHT22;76102;50.890;3.932;2024-03-23T09:57:42;8.60;71.30
85671;DHT22;76102;50.890;3.932;2024-03-23T10:00:13;8.50;70.90
85671;DHT22;76102;50.890;3.932;2024-03-23T10:02:39;9.40;68.40
85671;DHT22;76102;50.890;3.932;2024-03-23T10:05:22;8.90;68.30
85671;DHT22;76102;50.890;3.932;2024-03-23T10:07:53;9.00;69.00
85671;DHT22;76102;50.890;3.932;2024-03-23T10:10:21;10.50;67.50
85671;DHT22;76102;50.890;3.932;2024-03-23T10:12:50;10.40;63.10
85671;DHT22;76102;50.890;3.932;2024-03-23T10:15:27;9.00;65.80
85671;DHT22;76102;50.890;3.932;2024-03-23T10:17:57;9.30;67.20
85671;DHT22;76102;50.890;3.932;2024-03-23T10:20:26;9.40;66.90
85671;DHT22;76102;50.890;3.932;2024-03-23T10:22:54;9.80;67.80
85671;DHT22;76102;50.890;3.932;2024-03-23T10:25:24;10.10;64.10
85671;DHT22;76102;50.890;3.932;2024-03-23T10:28:00;10.60;65.40
85671;DHT22;76102;50.890;3.932;2024-03-23T10:30:33;11.10;61.80
85671;DHT22;76102;50.890;3.932;2024-03-23T10:33:12;10.50;63.80
85671;DHT22;76102;50.890;3.932;2024-03-23T10:35:38;11.30;63.90
85671;DHT22;76102;50.890;3.932;2024-03-23T10:38:05;11.90;61.10
85671;DHT22;76102;50.890;3.932;2024-03-23T10:40:37;11.30;61.00
85671;DHT22;76102;50.890;3.932;2024-03-23T10:43:09;11.00;62.40
85671;DHT22;76102;50.890;3.932;2024-03-23T10:45:35;10.80;66.10
85671;DHT22;76102;50.890;3.932;2024-03-23T10:48:03;10.40;64.10
85671;DHT22;76102;50.890;3.932;2024-03-23T10:50:29;9.90;64.40
85671;DHT22;76102;50.890;3.932;2024-03-23T10:52:56;9.90;64.80
85671;DHT22;76102;50.890;3.932;2024-03-23T10:55:25;9.80;62.90
85671;DHT22;76102;50.890;3.932;2024-03-23T10:57:54;10.00;63.70
85671;DHT22;76102;50.890;3.932;2024-03-23T11:00:20;9.50;63.40
85671;DHT22;76102;50.890;3.932;2024-03-23T11:02:48;9.40;65.30
85671;DHT22;76102;50.890;3.932;2024-03-23T11:05:46;9.60;65.10
85671;DHT22;76102;50.890;3.932;2024-03-23T11:08:30;9.70;64.40
85671;DHT22;76102;50.890;3.932;2024-03-23T11:11:17;9.80;64.20
85671;DHT22;76102;50.890;3.932;2024-03-23T11:13:44;10.30;63.80
85671;DHT22;76102;50.890;3.932;2024-03-23T11:16:31;10.20;65.90
85671;DHT22;76102;50.890;3.932;2024-03-23T11:19:37;9.90;62.20
85671;DHT22;76102;50.890;3.932;2024-03-23T11:22:04;9.90;67.10
85671;DHT22;76102;50.890;3.932;2024-03-23T11:24:31;9.90;63.70
85671;DHT22;76102;50.890;3.932;2024-03-23T11:27:03;10.10;63.20
85671;DHT22;76102;50.890;3.932;2024-03-23T11:29:40;9.90;61.80
85671;DHT22;76102;50.890;3.932;2024-03-23T11:32:09;9.30;62.00
85671;DHT22;76102;50.890;3.932;2024-03-23T11:34:35;9.40;61.90
85671;DHT22;76102;50.890;3.932;2024-03-23T11:37:05;9.50;63.40
85671;DHT22;76102;50.890;3.932;2024-03-23T11:39:31;9.80;64.10
85671;DHT22;76102;50.890;3.932;2024-03-23T11:41:59;9.60;63.20
85671;DHT22;76102;50.890;3.932;2024-03-23T11:44:28;9.50;62.60
85671;DHT22;76102;50.890;3.932;2024-03-23T11:47:07;9.10;62.70
85671;DHT22;76102;50.890;3.932;2024-03-23T11:49:36;8.40;62.60
85671;DHT22;76102;50.890;3.932;2024-03-23T11:52:08;8.00;65.50
85671;DHT22;76102;50.890;3.932;2024-03-23T11:54:36;7.80;67.30
85671;DHT22;76102;50.890;3.932;2024-03-23T11:57:04;7.70;69.20
85671;DHT22;76102;50.890;3.932;2024-03-23T11:59:40;7.50;70.60
85671;DHT22;76102;50.890;3.932;2024-03-23T12:02:15;7.50;72.20
85671;DHT22;76102;50.890;3.932;2024-03-23T12:04:43;8.00;72.70
85671;DHT22;76102;50.890;3.932;2024-03-23T12:07:18;8.50;72.10
85671;DHT22;76102;50.890;3.932;2024-03-23T12:09:44;9.00;70.10
85671;DHT22;76102;50.890;3.932;2024-03-23T12:12:17;9.20;67.70
85671;DHT22;76102;50.890;3.932;2024-03-23T12:15:06;9.30;68.50
85671;DHT22;76102;50.890;3.932;2024-03-23T12:17:33;9.50;69.60
85671;DHT22;76102;50.890;3.932;2024-03-23T12:20:00;9.60;69.30
85671;DHT22;76102;50.890;3.932;2024-03-23T12:22:26;9.60;65.60
85671;DHT22;76102;50.890;3.932;2024-03-23T12:24:54;9.90;65.90
85671;DHT22;76102;50.890;3.932;2024-03-23T12:27:22;9.70;62.60
85671;DHT22;76102;50.890;3.932;2024-03-23T12:29:48;9.40;65.80
85671;DHT22;76102;50.890;3.932;2024-03-23T12:32:16;9.50;63.40
85671;DHT22;76102;50.890;3.932;2024-03-23T12:34:42;9.40;64.40
85671;DHT22;76102;50.890;3.932;2024-03-23T12:37:08;9.50;63.10
85671;DHT22;76102;50.890;3.932;2024-03-23T12:39:42;9.70;61.70
85671;DHT22;76102;50.890;3.932;2024-03-23T12:42:08;9.80;61.60
85671;DHT22;76102;50.890;3.932;2024-03-23T12:44:35;9.80;60.20
85671;DHT22;76102;50.890;3.932;2024-03-23T12:47:01;10.30;62.50
85671;DHT22;76102;50.890;3.932;2024-03-23T12:49:27;10.20;59.00
85671;DHT22;76102;50.890;3.932;2024-03-23T12:51:55;10.20;62.60
85671;DHT22;76102;50.890;3.932;2024-03-23T12:54:24;9.90;59.80
85671;DHT22;76102;50.890;3.932;2024-03-23T12:56:53;9.60;62.80
85671;DHT22;76102;50.890;3.932;2024-03-23T12:59:18;9.40;61.20
85671;DHT22;76102;50.890;3.932;2024-03-23T13:01:46;9.10;61.40
85671;DHT22;76102;50.890;3.932;2024-03-23T13:04:12;8.90;63.20
85671;DHT22;76102;50.890;3.932;2024-03-23T13:06:38;8.90;65.80
85671;DHT22;76102;50.890;3.932;2024-03-23T13:09:05;9.00;63.60
85671;DHT22;76102;50.890;3.932;2024-03-23T13:11:31;9.10;64.80
85671;DHT22;76102;50.890;3.932;2024-03-23T13:13:57;9.30;65.30
85671;DHT22;76102;50.890;3.932;2024-03-23T13:16:25;9.50;62.20
85671;DHT22;76102;50.890;3.932;2024-03-23T13:18:51;9.60;61.90
85671;DHT22;76102;50.890;3.932;2024-03-23T13:21:17;9.60;61.30
85671;DHT22;76102;50.890;3.932;2024-03-23T13:23:42;9.80;60.20
85671;DHT22;76102;50.890;3.932;2024-03-23T13:26:11;9.70;59.00
85671;DHT22;76102;50.890;3.932;2024-03-23T13:28:39;10.10;57.70
85671;DHT22;76102;50.890;3.932;2024-03-23T13:31:07;10.20;57.30
85671;DHT22;76102;50.890;3.932;2024-03-23T13:33:36;10.40;58.50
85671;DHT22;76102;50.890;3.932;2024-03-23T13:36:04;10.70;59.30
85671;DHT22;76102;50.890;3.932;2024-03-23T13:38:34;11.00;57.00
85671;DHT22;76102;50.890;3.932;2024-03-23T13:41:00;10.50;58.20
85671;DHT22;76102;50.890;3.932;2024-03-23T13:43:26;10.30;57.50
85671;DHT22;76102;50.890;3.932;2024-03-23T13:46:01;10.00;59.50
85671;DHT22;76102;50.890;3.932;2024-03-23T13:48:27;10.20;59.70
85671;DHT22;76102;50.890;3.932;2024-03-23T13:51:02;10.40;60.30
85671;DHT22;76102;50.890;3.932;2024-03-23T13:53:28;10.60;58.50
85671;DHT22;76102;50.890;3.932;2024-03-23T13:55:57;10.70;58.50
85671;DHT22;76102;50.890;3.932;2024-03-23T13:58:23;10.90;58.10
85671;DHT22;76102;50.890;3.932;2024-03-23T14:00:51;10.80;58.30
85671;DHT22;76102;50.890;3.932;2024-03-23T14:03:17;11.00;58.90
85671;DHT22;76102;50.890;3.932;2024-03-23T14:05:46;10.90;57.50
85671;DHT22;76102;50.890;3.932;2024-03-23T14:08:15;10.90;59.60
85671;DHT22;76102;50.890;3.932;2024-03-23T14:10:45;10.70;56.70
85671;DHT22;76102;50.890;3.932;2024-03-23T14:13:11;10.60;56.70
85671;DHT22;76102;50.890;3.932;2024-03-23T14:15:36;10.10;62.00
85671;DHT22;76102;50.890;3.932;2024-03-23T14:18:02;10.10;65.60
85671;DHT22;76102;50.890;3.932;2024-03-23T14:20:30;10.60;65.80
85671;DHT22;76102;50.890;3.932;2024-03-23T14:22:56;10.70;60.80
85671;DHT22;76102;50.890;3.932;2024-03-23T14:25:22;10.50;59.40
85671;DHT22;76102;50.890;3.932;2024-03-23T14:27:52;10.50;60.20
85671;DHT22;76102;50.890;3.932;2024-03-23T14:30:20;10.60;58.80
85671;DHT22;76102;50.890;3.932;2024-03-23T14:32:46;10.60;59.00
85671;DHT22;76102;50.890;3.932;2024-03-23T14:35:11;10.90;60.40
85671;DHT22;76102;50.890;3.932;2024-03-23T14:37:37;10.90;60.50
85671;DHT22;76102;50.890;3.932;2024-03-23T14:40:04;10.70;57.50
85671;DHT22;76102;50.890;3.932;2024-03-23T14:42:30;10.60;57.60
85671;DHT22;76102;50.890;3.932;2024-03-23T14:44:56;10.30;58.40
85671;DHT22;76102;50.890;3.932;2024-03-23T14:47:22;10.00;60.70
85671;DHT22;76102;50.890;3.932;2024-03-23T14:49:48;10.50;60.60
85671;DHT22;76102;50.890;3.932;2024-03-23T14:52:18;10.70;57.40
85671;DHT22;76102;50.890;3.932;2024-03-23T14:54:46;10.70;58.80
85671;DHT22;76102;50.890;3.932;2024-03-23T14:57:12;10.40;58.10
85671;DHT22;76102;50.890;3.932;2024-03-23T14:59:38;10.70;60.80
85671;DHT22;76102;50.890;3.932;2024-03-23T15:02:09;10.60;59.50
85671;DHT22;76102;50.890;3.932;2024-03-23T15:04:35;10.60;59.40
85671;DHT22;76102;50.890;3.932;2024-03-23T15:07:04;10.60;60.90
85671;DHT22;76102;50.890;3.932;2024-03-23T15:09:29;10.70;62.10
85671;DHT22;76102;50.890;3.932;2024-03-23T15:11:55;10.70;56.50
85671;DHT22;76102;50.890;3.932;2024-03-23T15:14:24;10.80;57.20
85671;DHT22;76102;50.890;3.932;2024-03-23T15:16:49;10.70;59.60
85671;DHT22;76102;50.890;3.932;2024-03-23T15:19:18;10.80;57.80
85671;DHT22;76102;50.890;3.932;2024-03-23T15:21:44;10.60;57.40
85671;DHT22;76102;50.890;3.932;2024-03-23T15:24:10;10.70;58.60
85671;DHT22;76102;50.890;3.932;2024-03-23T15:26:41;11.00;57.80
85671;DHT22;76102;50.890;3.932;2024-03-23T15:29:07;11.10;57.50
85671;DHT22;76102;50.890;3.932;2024-03-23T15:31:38;10.80;55.20
85671;DHT22;76102;50.890;3.932;2024-03-23T15:34:04;10.90;54.30
85671;DHT22;76102;50.890;3.932;2024-03-23T15:36:32;10.90;55.90
85671;DHT22;76102;50.890;3.932;2024-03-23T15:38:58;10.90;55.20
85671;DHT22;76102;50.890;3.932;2024-03-23T15:41:28;10.80;52.70
85671;DHT22;76102;50.890;3.932;2024-03-23T15:43:56;10.70;54.40
85671;DHT22;76102;50.890;3.932;2024-03-23T15:46:21;10.50;52.80
85671;DHT22;76102;50.890;3.932;2024-03-23T15:48:52;10.40;53.00
85671;DHT22;76102;50.890;3.932;2024-03-23T15:51:17;10.50;54.80
85671;DHT22;76102;50.890;3.932;2024-03-23T15:53:43;10.50;53.00
85671;DHT22;76102;50.890;3.932;2024-03-23T15:56:09;10.70;54.00
85671;DHT22;76102;50.890;3.932;2024-03-23T15:58:38;10.40;52.90
85671;DHT22;76102;50.890;3.932;2024-03-23T16:03:32;10.70;56.30
85671;DHT22;76102;50.890;3.932;2024-03-23T16:06:04;10.40;55.30
85671;DHT22;76102;50.890;3.932;2024-03-23T16:08:30;10.40;56.80
85671;DHT22;76102;50.890;3.932;2024-03-23T16:13:25;10.30;53.90
85671;DHT22;76102;50.890;3.932;2024-03-23T16:15:58;10.10;53.70
85671;DHT22;76102;50.890;3.932;2024-03-23T16:18:24;10.10;56.10
85671;DHT22;76102;50.890;3.932;2024-03-23T16:21:01;10.00;56.60
85671;DHT22;76102;50.890;3.932;2024-03-23T16:23:28;10.00;55.80
85671;DHT22;76102;50.890;3.932;2024-03-23T16:25:56;10.00;55.80
85671;DHT22;76102;50.890;3.932;2024-03-23T16:28:32;10.10;57.80
85671;DHT22;76102;50.890;3.932;2024-03-23T16:33:27;10.00;56.80
85671;DHT22;76102;50.890;3.932;2024-03-23T16:38:26;9.80;57.90
85671;DHT22;76102;50.890;3.932;2024-03-23T16:40:57;9.80;59.20
85671;DHT22;76102;50.890;3.932;2024-03-23T16:43:23;9.80;59.40
85671;DHT22;76102;50.890;3.932;2024-03-23T16:45:57;9.70;56.40
85671;DHT22;76102;50.890;3.932;2024-03-23T16:48:27;9.70;58.40
85671;DHT22;76102;50.890;3.932;2024-03-23T16:50:53;9.70;58.10